sensor_id;sensor_type;location;lat;lon;timestamp;P1;durP1;ratioP1;P2;durP2;ratioP2
50337;SDS011;46221;51.178;5.900;2022-10-31T00:00:54;15.77;;;8.85;;
50337;SDS011;46221;51.178;5.900;2022-10-31T00:03:20;16.90;;;8.88;;
50337;SDS011;46221;51.178;5.900;2022-10-31T00:05:47;16.30;;;9.02;;
50337;SDS011;46221;51.178;5.900;2022-10-31T00:08:16;14.20;;;8.77;;
50337;SDS011;46221;51.178;5.900;2022-10-31T00:10:43;14.70;;;8.88;;
50337;SDS011;46221;51.178;5.900;2022-10-31T00:13:09;13.77;;;8.15;;
50337;SDS011;46221;51.178;5.900;2022-10-31T00:15:37;16.88;;;8.63;;
50337;SDS011;46221;51.178;5.900;2022-10-31T00:18:03;17.00;;;8.93;;
50337;SDS011;46221;51.178;5.900;2022-10-31T00:20:30;15.82;;;8.80;;
50337;SDS011;46221;51.178;5.900;2022-10-31T00:22:57;16.02;;;8.98;;
50337;SDS011;46221;51.178;5.900;2022-10-31T00:25:25;14.13;;;8.20;;
50337;SDS011;46221;51.178;5.900;2022-10-31T00:27:51;16.58;;;9.45;;
50337;SDS011;46221;51.178;5.900;2022-10-31T00:30:18;16.42;;;8.85;;
50337;SDS011;46221;51.178;5.900;2022-10-31T00:32:44;15.60;;;8.82;;
50337;SDS011;46221;51.178;5.900;2022-10-31T00:35:10;14.65;;;8.85;;
50337;SDS011;46221;51.178;5.900;2022-10-31T00:37:37;16.60;;;8.52;;
50337;SDS011;46221;51.178;5.900;2022-10-31T00:40:03;15.75;;;8.88;;
50337;SDS011;46221;51.178;5.900;2022-10-31T00:42:29;14.18;;;7.93;;
50337;SDS011;46221;51.178;5.900;2022-10-31T00:44:56;14.32;;;8.23;;
50337;SDS011;46221;51.178;5.900;2022-10-31T00:47:22;14.70;;;8.45;;
50337;SDS011;46221;51.178;5.900;2022-10-31T00:49:48;15.38;;;9.20;;
50337;SDS011;46221;51.178;5.900;2022-10-31T00:52:14;16.63;;;10.48;;
50337;SDS011;46221;51.178;5.900;2022-10-31T00:54:41;18.30;;;8.77;;
50337;SDS011;46221;51.178;5.900;2022-10-31T00:57:07;16.17;;;8.50;;
50337;SDS011;46221;51.178;5.900;2022-10-31T00:59:33;16.38;;;8.25;;
50337;SDS011;46221;51.178;5.900;2022-10-31T01:02:00;16.40;;;8.02;;
50337;SDS011;46221;51.178;5.900;2022-10-31T01:04:26;14.02;;;8.90;;
50337;SDS011;46221;51.178;5.900;2022-10-31T01:06:52;13.65;;;8.43;;
50337;SDS011;46221;51.178;5.900;2022-10-31T01:09:19;14.32;;;8.50;;
50337;SDS011;46221;51.178;5.900;2022-10-31T01:11:45;13.88;;;8.75;;
50337;SDS011;46221;51.178;5.900;2022-10-31T01:14:12;15.45;;;9.20;;
50337;SDS011;46221;51.178;5.900;2022-10-31T01:16:39;15.43;;;8.70;;
50337;SDS011;46221;51.178;5.900;2022-10-31T01:19:05;15.57;;;9.57;;
50337;SDS011;46221;51.178;5.900;2022-10-31T01:21:31;15.48;;;8.80;;
50337;SDS011;46221;51.178;5.900;2022-10-31T01:23:58;14.50;;;7.78;;
50337;SDS011;46221;51.178;5.900;2022-10-31T01:26:25;13.68;;;7.25;;
50337;SDS011;46221;51.178;5.900;2022-10-31T01:28:53;11.52;;;8.18;;
50337;SDS011;46221;51.178;5.900;2022-10-31T01:31:20;15.13;;;8.35;;
50337;SDS011;46221;51.178;5.900;2022-10-31T01:33:47;14.77;;;8.70;;
50337;SDS011;46221;51.178;5.900;2022-10-31T01:36:15;13.63;;;8.45;;
50337;SDS011;46221;51.178;5.900;2022-10-31T01:38:41;12.18;;;8.13;;
50337;SDS011;46221;51.178;5.900;2022-10-31T01:41:08;17.05;;;8.70;;
50337;SDS011;46221;51.178;5.900;2022-10-31T01:46:36;14.35;;;7.97;;
50337;SDS011;46221;51.178;5.900;2022-10-31T01:49:11;14.32;;;8.40;;
50337;SDS011;46221;51.178;5.900;2022-10-31T01:51:41;12.65;;;8.13;;
50337;SDS011;46221;51.178;5.900;2022-10-31T01:54:09;12.75;;;7.55;;
50337;SDS011;46221;51.178;5.900;2022-10-31T01:56:39;13.35;;;8.80;;
50337;SDS011;46221;51.178;5.900;2022-10-31T01:59:07;14.38;;;8.38;;
50337;SDS011;46221;51.178;5.900;2022-10-31T02:01:35;16.08;;;8.13;;
50337;SDS011;46221;51.178;5.900;2022-10-31T02:04:01;13.32;;;8.07;;
50337;SDS011;46221;51.178;5.900;2022-10-31T02:08:54;12.10;;;7.70;;
50337;SDS011;46221;51.178;5.900;2022-10-31T02:11:21;12.68;;;8.18;;
50337;SDS011;46221;51.178;5.900;2022-10-31T02:13:47;11.30;;;7.30;;
50337;SDS011;46221;51.178;5.900;2022-10-31T02:16:13;13.48;;;7.78;;
50337;SDS011;46221;51.178;5.900;2022-10-31T02:18:40;12.85;;;8.13;;
50337;SDS011;46221;51.178;5.900;2022-10-31T02:26:36;11.15;;;7.78;;
50337;SDS011;46221;51.178;5.900;2022-10-31T02:34:45;11.68;;;7.75;;
50337;SDS011;46221;51.178;5.900;2022-10-31T02:37:26;13.05;;;8.45;;
50337;SDS011;46221;51.178;5.900;2022-10-31T02:42:29;12.73;;;7.68;;
50337;SDS011;46221;51.178;5.900;2022-10-31T02:45:08;12.98;;;8.02;;
50337;SDS011;46221;51.178;5.900;2022-10-31T02:47:37;13.82;;;7.75;;
50337;SDS011;46221;51.178;5.900;2022-10-31T02:50:06;14.50;;;8.52;;
50337;SDS011;46221;51.178;5.900;2022-10-31T02:52:35;14.32;;;8.73;;
50337;SDS011;46221;51.178;5.900;2022-10-31T02:57:48;16.45;;;8.35;;
50337;SDS011;46221;51.178;5.900;2022-10-31T03:00:15;17.33;;;8.23;;
50337;SDS011;46221;51.178;5.900;2022-10-31T03:02:43;12.82;;;7.80;;
50337;SDS011;46221;51.178;5.900;2022-10-31T03:05:14;14.00;;;8.35;;
50337;SDS011;46221;51.178;5.900;2022-10-31T03:10:31;13.77;;;8.82;;
50337;SDS011;46221;51.178;5.900;2022-10-31T03:13:20;14.02;;;8.40;;
50337;SDS011;46221;51.178;5.900;2022-10-31T03:15:49;12.57;;;8.25;;
50337;SDS011;46221;51.178;5.900;2022-10-31T03:20:45;15.52;;;7.88;;
50337;SDS011;46221;51.178;5.900;2022-10-31T03:23:14;13.48;;;8.30;;
50337;SDS011;46221;51.178;5.900;2022-10-31T03:25:41;11.30;;;7.47;;
50337;SDS011;46221;51.178;5.900;2022-10-31T03:28:07;12.57;;;7.75;;
50337;SDS011;46221;51.178;5.900;2022-10-31T03:30:35;10.93;;;7.82;;
50337;SDS011;46221;51.178;5.900;2022-10-31T03:33:03;11.38;;;7.53;;
50337;SDS011;46221;51.178;5.900;2022-10-31T03:35:30;11.73;;;7.25;;
50337;SDS011;46221;51.178;5.900;2022-10-31T03:37:59;11.32;;;7.22;;
50337;SDS011;46221;51.178;5.900;2022-10-31T03:40:32;13.18;;;7.70;;
50337;SDS011;46221;51.178;5.900;2022-10-31T03:43:03;11.73;;;8.02;;
50337;SDS011;46221;51.178;5.900;2022-10-31T03:45:30;11.75;;;7.57;;
50337;SDS011;46221;51.178;5.900;2022-10-31T03:47:57;13.82;;;7.97;;
50337;SDS011;46221;51.178;5.900;2022-10-31T03:50:26;17.63;;;7.50;;
50337;SDS011;46221;51.178;5.900;2022-10-31T03:55:48;10.70;;;7.38;;
50337;SDS011;46221;51.178;5.900;2022-10-31T03:58:14;14.02;;;7.95;;
50337;SDS011;46221;51.178;5.900;2022-10-31T04:00:45;12.00;;;7.88;;
50337;SDS011;46221;51.178;5.900;2022-10-31T04:03:22;14.30;;;7.97;;
50337;SDS011;46221;51.178;5.900;2022-10-31T04:05:50;10.25;;;7.28;;
50337;SDS011;46221;51.178;5.900;2022-10-31T04:08:19;14.27;;;7.75;;
50337;SDS011;46221;51.178;5.900;2022-10-31T04:10:46;12.52;;;7.00;;
50337;SDS011;46221;51.178;5.900;2022-10-31T04:13:15;10.82;;;7.30;;
50337;SDS011;46221;51.178;5.900;2022-10-31T04:15:42;11.73;;;7.25;;
50337;SDS011;46221;51.178;5.900;2022-10-31T04:18:08;12.43;;;8.50;;
50337;SDS011;46221;51.178;5.900;2022-10-31T04:20:36;11.55;;;7.30;;
50337;SDS011;46221;51.178;5.900;2022-10-31T04:23:03;10.48;;;7.18;;
50337;SDS011;46221;51.178;5.900;2022-10-31T04:25:29;12.70;;;8.18;;
50337;SDS011;46221;51.178;5.900;2022-10-31T04:27:56;13.40;;;7.60;;
50337;SDS011;46221;51.178;5.900;2022-10-31T04:30:22;13.45;;;7.65;;
50337;SDS011;46221;51.178;5.900;2022-10-31T04:32:49;12.82;;;7.95;;
50337;SDS011;46221;51.178;5.900;2022-10-31T04:35:15;13.43;;;7.10;;
50337;SDS011;46221;51.178;5.900;2022-10-31T04:37:42;11.25;;;8.00;;
50337;SDS011;46221;51.178;5.900;2022-10-31T04:40:08;11.57;;;7.13;;
50337;SDS011;46221;51.178;5.900;2022-10-31T04:42:34;13.07;;;7.60;;
50337;SDS011;46221;51.178;5.900;2022-10-31T04:45:01;11.98;;;7.97;;
50337;SDS011;46221;51.178;5.900;2022-10-31T04:47:27;12.20;;;7.75;;
50337;SDS011;46221;51.178;5.900;2022-10-31T04:49:56;11.73;;;7.22;;
50337;SDS011;46221;51.178;5.900;2022-10-31T04:52:22;11.50;;;7.28;;
50337;SDS011;46221;51.178;5.900;2022-10-31T04:54:48;11.68;;;7.82;;
50337;SDS011;46221;51.178;5.900;2022-10-31T04:57:15;11.77;;;7.35;;
50337;SDS011;46221;51.178;5.900;2022-10-31T04:59:41;11.50;;;7.20;;
50337;SDS011;46221;51.178;5.900;2022-10-31T05:02:07;12.68;;;8.23;;
50337;SDS011;46221;51.178;5.900;2022-10-31T05:04:34;11.73;;;7.82;;
50337;SDS011;46221;51.178;5.900;2022-10-31T05:07:00;10.50;;;7.07;;
50337;SDS011;46221;51.178;5.900;2022-10-31T05:09:26;11.90;;;7.63;;
50337;SDS011;46221;51.178;5.900;2022-10-31T05:11:52;11.38;;;7.20;;
50337;SDS011;46221;51.178;5.900;2022-10-31T05:14:19;11.00;;;7.35;;
50337;SDS011;46221;51.178;5.900;2022-10-31T05:16:45;12.95;;;7.72;;
50337;SDS011;46221;51.178;5.900;2022-10-31T05:19:11;11.30;;;7.40;;
50337;SDS011;46221;51.178;5.900;2022-10-31T05:21:38;8.95;;;6.57;;
50337;SDS011;46221;51.178;5.900;2022-10-31T05:24:04;9.35;;;6.97;;
50337;SDS011;46221;51.178;5.900;2022-10-31T05:26:31;14.40;;;7.25;;
50337;SDS011;46221;51.178;5.900;2022-10-31T05:28:57;12.07;;;6.95;;
50337;SDS011;46221;51.178;5.900;2022-10-31T05:31:23;10.75;;;6.68;;
50337;SDS011;46221;51.178;5.900;2022-10-31T05:33:50;9.50;;;6.53;;
50337;SDS011;46221;51.178;5.900;2022-10-31T05:36:16;10.73;;;6.43;;
50337;SDS011;46221;51.178;5.900;2022-10-31T05:38:43;12.70;;;7.00;;
50337;SDS011;46221;51.178;5.900;2022-10-31T05:41:09;9.40;;;6.03;;
50337;SDS011;46221;51.178;5.900;2022-10-31T05:43:35;11.85;;;6.28;;
50337;SDS011;46221;51.178;5.900;2022-10-31T05:46:02;10.45;;;6.43;;
50337;SDS011;46221;51.178;5.900;2022-10-31T05:48:28;12.00;;;7.40;;
50337;SDS011;46221;51.178;5.900;2022-10-31T05:50:54;9.57;;;6.63;;
50337;SDS011;46221;51.178;5.900;2022-10-31T05:53:20;10.25;;;5.97;;
50337;SDS011;46221;51.178;5.900;2022-10-31T05:55:47;12.23;;;7.05;;
50337;SDS011;46221;51.178;5.900;2022-10-31T05:58:13;8.90;;;5.68;;
50337;SDS011;46221;51.178;5.900;2022-10-31T06:00:40;9.57;;;6.50;;
50337;SDS011;46221;51.178;5.900;2022-10-31T06:03:07;10.07;;;6.07;;
50337;SDS011;46221;51.178;5.900;2022-10-31T06:05:34;10.57;;;6.65;;
50337;SDS011;46221;51.178;5.900;2022-10-31T06:08:00;7.97;;;5.50;;
50337;SDS011;46221;51.178;5.900;2022-10-31T06:10:27;8.95;;;6.05;;
50337;SDS011;46221;51.178;5.900;2022-10-31T06:12:54;10.45;;;6.63;;
50337;SDS011;46221;51.178;5.900;2022-10-31T06:15:20;9.60;;;5.97;;
50337;SDS011;46221;51.178;5.900;2022-10-31T06:17:59;10.95;;;5.78;;
50337;SDS011;46221;51.178;5.900;2022-10-31T06:20:26;11.73;;;5.93;;
50337;SDS011;46221;51.178;5.900;2022-10-31T06:22:53;8.93;;;5.35;;
50337;SDS011;46221;51.178;5.900;2022-10-31T06:25:20;9.35;;;5.47;;
50337;SDS011;46221;51.178;5.900;2022-10-31T06:27:46;9.55;;;5.50;;
50337;SDS011;46221;51.178;5.900;2022-10-31T06:30:12;8.75;;;5.72;;
50337;SDS011;46221;51.178;5.900;2022-10-31T06:32:39;8.85;;;5.20;;
50337;SDS011;46221;51.178;5.900;2022-10-31T06:35:05;8.55;;;5.45;;
50337;SDS011;46221;51.178;5.900;2022-10-31T06:37:31;8.48;;;5.60;;
50337;SDS011;46221;51.178;5.900;2022-10-31T06:39:58;11.30;;;5.95;;
50337;SDS011;46221;51.178;5.900;2022-10-31T06:42:24;11.00;;;6.05;;
50337;SDS011;46221;51.178;5.900;2022-10-31T06:44:51;12.13;;;5.90;;
50337;SDS011;46221;51.178;5.900;2022-10-31T06:47:17;11.15;;;6.63;;
50337;SDS011;46221;51.178;5.900;2022-10-31T06:49:46;10.43;;;5.68;;
50337;SDS011;46221;51.178;5.900;2022-10-31T06:52:12;10.18;;;6.15;;
50337;SDS011;46221;51.178;5.900;2022-10-31T06:54:39;9.60;;;5.68;;
50337;SDS011;46221;51.178;5.900;2022-10-31T06:57:05;8.18;;;5.57;;
50337;SDS011;46221;51.178;5.900;2022-10-31T06:59:31;13.57;;;6.53;;
50337;SDS011;46221;51.178;5.900;2022-10-31T07:01:58;10.10;;;6.22;;
50337;SDS011;46221;51.178;5.900;2022-10-31T07:04:26;10.68;;;5.82;;
50337;SDS011;46221;51.178;5.900;2022-10-31T07:06:52;9.52;;;5.60;;
50337;SDS011;46221;51.178;5.900;2022-10-31T07:09:19;9.10;;;6.20;;
50337;SDS011;46221;51.178;5.900;2022-10-31T07:11:45;12.52;;;5.32;;
50337;SDS011;46221;51.178;5.900;2022-10-31T07:14:11;9.70;;;5.65;;
50337;SDS011;46221;51.178;5.900;2022-10-31T07:16:38;8.05;;;5.47;;
50337;SDS011;46221;51.178;5.900;2022-10-31T07:19:04;9.43;;;5.57;;
50337;SDS011;46221;51.178;5.900;2022-10-31T07:21:30;9.77;;;6.05;;
50337;SDS011;46221;51.178;5.900;2022-10-31T07:23:56;10.55;;;5.82;;
50337;SDS011;46221;51.178;5.900;2022-10-31T07:26:23;8.40;;;6.03;;
50337;SDS011;46221;51.178;5.900;2022-10-31T07:28:49;13.40;;;6.55;;
50337;SDS011;46221;51.178;5.900;2022-10-31T07:31:15;12.00;;;6.60;;
50337;SDS011;46221;51.178;5.900;2022-10-31T07:33:42;9.52;;;6.53;;
50337;SDS011;46221;51.178;5.900;2022-10-31T07:36:08;13.15;;;6.22;;
50337;SDS011;46221;51.178;5.900;2022-10-31T07:38:34;11.82;;;6.72;;
50337;SDS011;46221;51.178;5.900;2022-10-31T07:41:01;9.88;;;6.28;;
50337;SDS011;46221;51.178;5.900;2022-10-31T07:43:27;10.45;;;7.03;;
50337;SDS011;46221;51.178;5.900;2022-10-31T07:45:53;10.35;;;6.82;;
50337;SDS011;46221;51.178;5.900;2022-10-31T07:48:20;10.90;;;6.95;;
50337;SDS011;46221;51.178;5.900;2022-10-31T07:50:46;10.90;;;7.00;;
50337;SDS011;46221;51.178;5.900;2022-10-31T07:53:13;9.02;;;6.22;;
50337;SDS011;46221;51.178;5.900;2022-10-31T07:55:39;14.38;;;7.85;;
50337;SDS011;46221;51.178;5.900;2022-10-31T07:58:10;11.88;;;7.95;;
50337;SDS011;46221;51.178;5.900;2022-10-31T08:00:37;12.70;;;7.43;;
50337;SDS011;46221;51.178;5.900;2022-10-31T08:03:04;14.25;;;8.10;;
50337;SDS011;46221;51.178;5.900;2022-10-31T08:05:31;12.20;;;7.60;;
50337;SDS011;46221;51.178;5.900;2022-10-31T08:07:57;10.00;;;7.78;;
50337;SDS011;46221;51.178;5.900;2022-10-31T08:10:25;10.75;;;7.70;;
50337;SDS011;46221;51.178;5.900;2022-10-31T08:12:58;12.70;;;7.55;;
50337;SDS011;46221;51.178;5.900;2022-10-31T08:15:25;9.98;;;7.32;;
50337;SDS011;46221;51.178;5.900;2022-10-31T08:17:52;10.27;;;7.38;;
50337;SDS011;46221;51.178;5.900;2022-10-31T08:20:19;11.27;;;7.25;;
50337;SDS011;46221;51.178;5.900;2022-10-31T08:23:19;10.45;;;7.65;;
50337;SDS011;46221;51.178;5.900;2022-10-31T08:25:38;13.45;;;8.35;;
50337;SDS011;46221;51.178;5.900;2022-10-31T08:28:05;10.18;;;7.60;;
50337;SDS011;46221;51.178;5.900;2022-10-31T08:30:32;11.05;;;7.20;;
50337;SDS011;46221;51.178;5.900;2022-10-31T08:35:25;10.00;;;7.70;;
50337;SDS011;46221;51.178;5.900;2022-10-31T08:37:55;12.05;;;8.00;;
50337;SDS011;46221;51.178;5.900;2022-10-31T08:40:22;11.88;;;8.23;;
50337;SDS011;46221;51.178;5.900;2022-10-31T08:42:56;14.50;;;8.60;;
50337;SDS011;46221;51.178;5.900;2022-10-31T08:45:23;10.80;;;8.25;;
50337;SDS011;46221;51.178;5.900;2022-10-31T08:47:49;13.38;;;8.65;;
50337;SDS011;46221;51.178;5.900;2022-10-31T08:50:16;13.23;;;8.75;;
50337;SDS011;46221;51.178;5.900;2022-10-31T08:52:42;13.90;;;9.20;;
50337;SDS011;46221;51.178;5.900;2022-10-31T08:55:28;12.57;;;9.10;;
50337;SDS011;46221;51.178;5.900;2022-10-31T08:57:58;12.98;;;8.30;;
50337;SDS011;46221;51.178;5.900;2022-10-31T09:00:25;13.80;;;9.00;;
50337;SDS011;46221;51.178;5.900;2022-10-31T09:02:55;10.98;;;8.13;;
50337;SDS011;46221;51.178;5.900;2022-10-31T09:05:22;13.82;;;8.68;;
50337;SDS011;46221;51.178;5.900;2022-10-31T09:07:48;13.05;;;8.43;;
50337;SDS011;46221;51.178;5.900;2022-10-31T09:10:15;15.13;;;9.50;;
50337;SDS011;46221;51.178;5.900;2022-10-31T09:12:41;14.18;;;8.82;;
50337;SDS011;46221;51.178;5.900;2022-10-31T09:15:07;17.95;;;10.27;;
50337;SDS011;46221;51.178;5.900;2022-10-31T09:17:34;11.68;;;8.60;;
50337;SDS011;46221;51.178;5.900;2022-10-31T09:20:00;12.48;;;9.02;;
50337;SDS011;46221;51.178;5.900;2022-10-31T09:22:27;14.27;;;9.02;;
50337;SDS011;46221;51.178;5.900;2022-10-31T09:24:53;17.08;;;9.75;;
50337;SDS011;46221;51.178;5.900;2022-10-31T09:27:19;14.32;;;9.60;;
50337;SDS011;46221;51.178;5.900;2022-10-31T09:29:46;14.20;;;9.25;;
50337;SDS011;46221;51.178;5.900;2022-10-31T09:32:12;15.43;;;10.00;;
50337;SDS011;46221;51.178;5.900;2022-10-31T09:34:38;13.70;;;9.45;;
50337;SDS011;46221;51.178;5.900;2022-10-31T09:37:05;18.73;;;9.65;;
50337;SDS011;46221;51.178;5.900;2022-10-31T09:39:31;14.00;;;9.60;;
50337;SDS011;46221;51.178;5.900;2022-10-31T09:42:07;14.27;;;10.88;;
50337;SDS011;46221;51.178;5.900;2022-10-31T09:44:50;14.52;;;9.65;;
50337;SDS011;46221;51.178;5.900;2022-10-31T09:52:34;16.20;;;10.98;;
50337;SDS011;46221;51.178;5.900;2022-10-31T09:55:13;16.77;;;10.15;;
50337;SDS011;46221;51.178;5.900;2022-10-31T09:57:40;19.27;;;10.75;;
50337;SDS011;46221;51.178;5.900;2022-10-31T10:00:09;17.40;;;11.55;;
50337;SDS011;46221;51.178;5.900;2022-10-31T10:02:51;16.70;;;11.55;;
50337;SDS011;46221;51.178;5.900;2022-10-31T10:05:25;22.10;;;12.30;;
50337;SDS011;46221;51.178;5.900;2022-10-31T10:08:00;20.88;;;11.80;;
50337;SDS011;46221;51.178;5.900;2022-10-31T10:10:35;15.80;;;11.82;;
50337;SDS011;46221;51.178;5.900;2022-10-31T10:18:17;19.17;;;12.80;;
50337;SDS011;46221;51.178;5.900;2022-10-31T10:25:44;17.00;;;12.48;;
50337;SDS011;46221;51.178;5.900;2022-10-31T10:30:42;22.00;;;14.20;;
50337;SDS011;46221;51.178;5.900;2022-10-31T10:33:18;21.00;;;13.38;;
50337;SDS011;46221;51.178;5.900;2022-10-31T10:35:52;22.42;;;13.18;;
50337;SDS011;46221;51.178;5.900;2022-10-31T10:40:45;20.10;;;12.05;;
50337;SDS011;46221;51.178;5.900;2022-10-31T10:43:32;22.40;;;13.25;;
50337;SDS011;46221;51.178;5.900;2022-10-31T10:48:45;17.13;;;11.40;;
50337;SDS011;46221;51.178;5.900;2022-10-31T10:51:21;18.45;;;11.80;;
50337;SDS011;46221;51.178;5.900;2022-10-31T10:54:35;16.88;;;11.00;;
50337;SDS011;46221;51.178;5.900;2022-10-31T10:59:39;17.58;;;11.15;;
50337;SDS011;46221;51.178;5.900;2022-10-31T11:02:25;15.52;;;10.27;;
50337;SDS011;46221;51.178;5.900;2022-10-31T11:04:55;18.05;;;10.85;;
50337;SDS011;46221;51.178;5.900;2022-10-31T11:07:22;16.27;;;9.63;;
50337;SDS011;46221;51.178;5.900;2022-10-31T11:09:49;16.50;;;9.55;;
50337;SDS011;46221;51.178;5.900;2022-10-31T11:15:16;14.63;;;10.20;;
50337;SDS011;46221;51.178;5.900;2022-10-31T11:17:36;18.60;;;9.98;;
50337;SDS011;46221;51.178;5.900;2022-10-31T11:22:29;18.15;;;9.85;;
50337;SDS011;46221;51.178;5.900;2022-10-31T11:24:56;15.70;;;9.43;;
50337;SDS011;46221;51.178;5.900;2022-10-31T11:27:23;15.60;;;9.77;;
50337;SDS011;46221;51.178;5.900;2022-10-31T11:29:50;13.60;;;9.68;;
50337;SDS011;46221;51.178;5.900;2022-10-31T11:32:22;14.52;;;8.80;;
50337;SDS011;46221;51.178;5.900;2022-10-31T11:34:53;16.42;;;9.15;;
50337;SDS011;46221;51.178;5.900;2022-10-31T11:39:48;14.63;;;9.30;;
50337;SDS011;46221;51.178;5.900;2022-10-31T11:42:20;15.48;;;9.07;;
50337;SDS011;46221;51.178;5.900;2022-10-31T11:44:47;13.57;;;8.43;;
50337;SDS011;46221;51.178;5.900;2022-10-31T11:47:15;12.05;;;8.75;;
50337;SDS011;46221;51.178;5.900;2022-10-31T11:49:42;13.77;;;8.80;;
50337;SDS011;46221;51.178;5.900;2022-10-31T11:52:13;15.43;;;8.93;;
50337;SDS011;46221;51.178;5.900;2022-10-31T11:57:26;14.82;;;8.70;;
50337;SDS011;46221;51.178;5.900;2022-10-31T11:59:54;11.45;;;7.95;;
50337;SDS011;46221;51.178;5.900;2022-10-31T12:02:20;15.00;;;7.55;;
50337;SDS011;46221;51.178;5.900;2022-10-31T12:04:49;13.90;;;8.20;;
50337;SDS011;46221;51.178;5.900;2022-10-31T12:07:17;14.35;;;7.80;;
50337;SDS011;46221;51.178;5.900;2022-10-31T12:09:43;15.18;;;7.80;;
50337;SDS011;46221;51.178;5.900;2022-10-31T12:12:32;12.50;;;7.55;;
50337;SDS011;46221;51.178;5.900;2022-10-31T12:17:52;15.02;;;6.90;;
50337;SDS011;46221;51.178;5.900;2022-10-31T12:22:53;11.63;;;7.32;;
50337;SDS011;46221;51.178;5.900;2022-10-31T12:27:56;11.73;;;6.72;;
50337;SDS011;46221;51.178;5.900;2022-10-31T12:30:26;8.93;;;6.47;;
50337;SDS011;46221;51.178;5.900;2022-10-31T12:33:00;15.75;;;7.45;;
50337;SDS011;46221;51.178;5.900;2022-10-31T12:45:54;14.48;;;7.22;;
50337;SDS011;46221;51.178;5.900;2022-10-31T12:51:13;10.65;;;6.55;;
50337;SDS011;46221;51.178;5.900;2022-10-31T12:59:08;12.93;;;7.22;;
50337;SDS011;46221;51.178;5.900;2022-10-31T13:01:38;14.00;;;6.40;;
50337;SDS011;46221;51.178;5.900;2022-10-31T13:04:12;11.73;;;6.55;;
50337;SDS011;46221;51.178;5.900;2022-10-31T13:06:42;10.85;;;5.85;;
50337;SDS011;46221;51.178;5.900;2022-10-31T13:09:11;10.93;;;5.60;;
50337;SDS011;46221;51.178;5.900;2022-10-31T13:14:07;10.23;;;5.65;;
50337;SDS011;46221;51.178;5.900;2022-10-31T13:16:40;10.18;;;6.70;;
50337;SDS011;46221;51.178;5.900;2022-10-31T13:19:13;12.02;;;6.22;;
50337;SDS011;46221;51.178;5.900;2022-10-31T13:21:45;9.93;;;6.15;;
50337;SDS011;46221;51.178;5.900;2022-10-31T13:24:16;11.68;;;6.18;;
50337;SDS011;46221;51.178;5.900;2022-10-31T13:26:45;11.15;;;6.80;;
50337;SDS011;46221;51.178;5.900;2022-10-31T13:29:33;12.30;;;5.93;;
50337;SDS011;46221;51.178;5.900;2022-10-31T13:32:00;14.48;;;6.18;;
50337;SDS011;46221;51.178;5.900;2022-10-31T13:34:33;13.80;;;6.10;;
50337;SDS011;46221;51.178;5.900;2022-10-31T13:42:15;9.55;;;5.60;;
50337;SDS011;46221;51.178;5.900;2022-10-31T13:44:45;11.20;;;6.30;;
50337;SDS011;46221;51.178;5.900;2022-10-31T13:47:25;14.48;;;6.50;;
50337;SDS011;46221;51.178;5.900;2022-10-31T13:50:02;12.15;;;6.75;;
50337;SDS011;46221;51.178;5.900;2022-10-31T13:52:29;11.23;;;6.00;;
50337;SDS011;46221;51.178;5.900;2022-10-31T13:54:56;10.93;;;5.97;;
50337;SDS011;46221;51.178;5.900;2022-10-31T13:57:33;13.98;;;6.00;;
50337;SDS011;46221;51.178;5.900;2022-10-31T14:00:03;13.05;;;6.88;;
50337;SDS011;46221;51.178;5.900;2022-10-31T14:02:33;15.10;;;6.60;;
50337;SDS011;46221;51.178;5.900;2022-10-31T14:05:02;14.05;;;5.72;;
50337;SDS011;46221;51.178;5.900;2022-10-31T14:07:29;11.95;;;6.25;;
50337;SDS011;46221;51.178;5.900;2022-10-31T14:09:57;12.80;;;6.20;;
50337;SDS011;46221;51.178;5.900;2022-10-31T14:15:33;10.63;;;6.03;;
50337;SDS011;46221;51.178;5.900;2022-10-31T14:17:56;11.38;;;5.72;;
50337;SDS011;46221;51.178;5.900;2022-10-31T14:20:26;10.98;;;5.28;;
50337;SDS011;46221;51.178;5.900;2022-10-31T14:22:57;10.82;;;5.57;;
50337;SDS011;46221;51.178;5.900;2022-10-31T14:25:33;11.38;;;5.72;;
50337;SDS011;46221;51.178;5.900;2022-10-31T14:28:00;10.48;;;5.15;;
50337;SDS011;46221;51.178;5.900;2022-10-31T14:30:29;11.80;;;5.25;;
50337;SDS011;46221;51.178;5.900;2022-10-31T14:33:16;10.95;;;5.10;;
50337;SDS011;46221;51.178;5.900;2022-10-31T14:38:26;11.32;;;4.50;;
50337;SDS011;46221;51.178;5.900;2022-10-31T14:41:45;10.07;;;5.40;;
50337;SDS011;46221;51.178;5.900;2022-10-31T14:46:36;12.15;;;4.80;;
50337;SDS011;46221;51.178;5.900;2022-10-31T14:49:07;11.70;;;5.43;;
50337;SDS011;46221;51.178;5.900;2022-10-31T14:51:39;8.60;;;4.83;;
50337;SDS011;46221;51.178;5.900;2022-10-31T14:54:07;8.35;;;4.35;;
50337;SDS011;46221;51.178;5.900;2022-10-31T14:56:37;10.70;;;4.70;;
50337;SDS011;46221;51.178;5.900;2022-10-31T14:59:06;8.48;;;4.53;;
50337;SDS011;46221;51.178;5.900;2022-10-31T15:01:34;8.82;;;5.20;;
50337;SDS011;46221;51.178;5.900;2022-10-31T15:04:20;10.18;;;4.93;;
50337;SDS011;46221;51.178;5.900;2022-10-31T15:07:05;10.52;;;4.68;;
50337;SDS011;46221;51.178;5.900;2022-10-31T15:09:35;9.93;;;4.97;;
50337;SDS011;46221;51.178;5.900;2022-10-31T15:14:48;7.70;;;5.53;;
50337;SDS011;46221;51.178;5.900;2022-10-31T15:17:15;14.55;;;4.80;;
50337;SDS011;46221;51.178;5.900;2022-10-31T15:19:41;9.07;;;4.80;;
50337;SDS011;46221;51.178;5.900;2022-10-31T15:22:10;7.80;;;4.30;;
50337;SDS011;46221;51.178;5.900;2022-10-31T15:24:39;8.43;;;4.90;;
50337;SDS011;46221;51.178;5.900;2022-10-31T15:27:05;7.80;;;4.65;;
50337;SDS011;46221;51.178;5.900;2022-10-31T15:29:36;8.57;;;5.03;;
50337;SDS011;46221;51.178;5.900;2022-10-31T15:34:46;10.63;;;5.53;;
50337;SDS011;46221;51.178;5.900;2022-10-31T15:37:13;7.88;;;4.60;;
50337;SDS011;46221;51.178;5.900;2022-10-31T15:39:40;10.00;;;5.25;;
50337;SDS011;46221;51.178;5.900;2022-10-31T15:42:14;10.88;;;4.60;;
50337;SDS011;46221;51.178;5.900;2022-10-31T15:44:43;8.65;;;4.93;;
50337;SDS011;46221;51.178;5.900;2022-10-31T15:47:16;8.07;;;4.50;;
50337;SDS011;46221;51.178;5.900;2022-10-31T15:50:01;9.93;;;4.97;;
50337;SDS011;46221;51.178;5.900;2022-10-31T15:52:29;8.93;;;4.53;;
50337;SDS011;46221;51.178;5.900;2022-10-31T15:54:58;13.15;;;4.88;;
50337;SDS011;46221;51.178;5.900;2022-10-31T15:57:25;8.48;;;4.70;;
50337;SDS011;46221;51.178;5.900;2022-10-31T15:59:52;9.45;;;5.25;;
50337;SDS011;46221;51.178;5.900;2022-10-31T16:02:21;10.38;;;4.93;;
50337;SDS011;46221;51.178;5.900;2022-10-31T16:04:49;10.95;;;4.35;;
50337;SDS011;46221;51.178;5.900;2022-10-31T16:07:16;9.55;;;4.40;;
50337;SDS011;46221;51.178;5.900;2022-10-31T16:09:49;9.00;;;4.70;;
50337;SDS011;46221;51.178;5.900;2022-10-31T16:12:16;8.52;;;4.40;;
50337;SDS011;46221;51.178;5.900;2022-10-31T16:14:47;8.48;;;5.28;;
50337;SDS011;46221;51.178;5.900;2022-10-31T16:17:15;8.32;;;5.53;;
50337;SDS011;46221;51.178;5.900;2022-10-31T16:19:46;9.50;;;5.00;;
50337;SDS011;46221;51.178;5.900;2022-10-31T16:22:14;9.90;;;4.40;;
50337;SDS011;46221;51.178;5.900;2022-10-31T16:24:45;8.52;;;4.57;;
50337;SDS011;46221;51.178;5.900;2022-10-31T16:27:17;7.75;;;4.13;;
50337;SDS011;46221;51.178;5.900;2022-10-31T16:29:45;8.65;;;4.32;;
50337;SDS011;46221;51.178;5.900;2022-10-31T16:32:27;8.02;;;4.35;;
50337;SDS011;46221;51.178;5.900;2022-10-31T16:35:01;8.10;;;4.13;;
50337;SDS011;46221;51.178;5.900;2022-10-31T16:37:27;10.35;;;5.03;;
50337;SDS011;46221;51.178;5.900;2022-10-31T16:39:54;8.88;;;4.13;;
50337;SDS011;46221;51.178;5.900;2022-10-31T16:42:20;7.75;;;4.25;;